Time;durP1;ratioP1;P1;durP2;ratioP2;P2;SDS_P1;SDS_P2;PMS_P1;PMS_P2;Temp;Humidity;BMP_temperature;BMP_pressure;BME280_temperature;BME280_humidity;BME280_pressure;Samples;Min_cycle;Max_cycle;Signal;HPM_P1;HPM_P2
2021/11/09 00:00:04;;;;;;;974.35;907.72;;;;;;;9.67;74.85;101983.69;687932;28;46380;-68
2021/11/09 00:00:33;;;;;;;934.85;869.90;;;;;;;9.68;74.90;101986.25;684653;28;136294;-69
2021/11/09 00:00:58;;;;;;;930.55;865.85;;;;;;;9.69;74.86;101987.13;686307;28;69550;-69
2021/11/09 00:01:20;;;;;;;934.72;869.92;;;;;;;9.69;75.05;101984.41;685200;28;114691;-68
2021/11/09 00:01:44;;;;;;;926.88;862.28;;;;;;;9.69;75.07;101987.97;687609;28;46382;-68
2021/11/09 00:02:08;;;;;;;936.70;871.67;;;;;;;9.70;74.76;101988.81;686698;28;92254;-68
2021/11/09 00:02:29;;;;;;;971.58;905.08;;;;;;;9.69;75.04;101984.41;686183;28;90481;-68
2021/11/09 00:02:51;;;;;;;972.38;905.78;;;;;;;9.70;75.04;101988.81;688113;28;22368;-69
2021/11/09 00:03:15;;;;;;;960.72;894.83;;;;;;;9.70;74.72;101988.81;688117;28;44398;-68
2021/11/09 00:03:43;;;;;;;955.03;889.15;;;;;;;9.69;74.78;101989.81;683788;28;91756;-68
2021/11/09 00:04:06;;;;;;;974.45;907.65;;;;;;;9.67;75.11;101989.94;681392;28;136234;-69
2021/11/09 00:04:34;;;;;;;980.53;913.53;;;;;;;9.68;74.83;101993.50;684014;28;69268;-68
2021/11/09 00:04:56;;;;;;;984.28;917.00;;;;;;;9.69;74.75;101996.06;681278;28;137168;-68
2021/11/09 00:05:20;;;;;;;984.72;917.50;;;;;;;9.68;74.82;101996.19;684094;28;69422;-69
2021/11/09 00:05:48;;;;;;;994.58;926.95;;;;;;;9.68;74.74;101988.09;686812;28;67486;-68
2021/11/09 00:06:17;;;;;;;1003.05;935.15;;;;;;;9.70;74.81;101996.88;684153;28;135357;-69
2021/11/09 00:06:41;;;;;;;1022.17;953.53;;;;;;;9.69;74.93;101995.22;683937;28;137734;-69
2021/11/09 00:07:08;;;;;;;1044.22;974.72;;;;;;;9.69;74.79;101990.66;686161;28;90765;-69
2021/11/09 00:07:34;;;;;;;1052.65;982.75;;;;;;;9.69;75.12;101987.13;684693;28;137850;-69
2021/11/09 00:07:56;;;;;;;1059.32;988.85;;;;;;;9.69;75.04;101992.50;684059;28;138339;-69
2021/11/09 00:08:20;;;;;;;1057.43;987.25;;;;;;;9.68;74.84;101991.63;687917;28;44369;-69
2021/11/09 00:08:44;;;;;;;1038.63;969.40;;;;;;;9.69;75.10;102000.59;685579;28;113564;-69
2021/11/09 00:09:08;;;;;;;1015.70;947.75;;;;;;;9.69;74.75;102003.31;686340;28;92255;-69
2021/11/09 00:09:34;;;;;;;1011.25;943.45;;;;;;;9.68;74.94;101999.72;686800;28;67504;-68
2021/11/09 00:09:56;;;;;;;992.50;925.67;;;;;;;9.68;74.90;102004.28;684659;28;137763;-68
2021/11/09 00:10:19;;;;;;;997.33;930.30;;;;;;;9.68;74.92;102007.81;686891;28;69296;-69
2021/11/09 00:10:43;;;;;;;983.75;917.35;;;;;;;9.67;75.09;102003.44;686856;28;69408;-69
2021/11/09 00:11:04;;;;;;;1004.78;937.28;;;;;;;9.69;74.95;102008.69;686055;28;69967;-68
2021/11/09 00:11:26;;;;;;;1027.05;958.35;;;;;;;9.68;75.18;102006.97;687235;28;22069;-68
2021/11/09 00:11:48;;;;;;;1010.58;942.83;;;;;;;9.68;74.86;102006.97;685489;28;46428;-68
2021/11/09 00:12:10;;;;;;;996.55;929.55;;;;;;;9.69;74.94;102008.69;685564;28;69387;-68
2021/11/09 00:12:33;;;;;;;996.17;929.28;;;;;;;9.68;74.93;102005.13;686635;28;22382;-69
2021/11/09 00:12:58;;;;;;;993.10;926.33;;;;;;;9.68;74.92;102005.13;685016;28;69090;-69
2021/11/09 00:13:21;;;;;;;997.97;930.83;;;;;;;9.69;75.29;102006.00;684943;28;113690;-68
2021/11/09 00:13:43;;;;;;;1018.13;949.92;;;;;;;9.68;75.18;102005.13;686942;28;69417;-69
2021/11/09 00:14:05;;;;;;;1002.17;934.95;;;;;;;9.69;75.01;102014.09;687104;28;69386;-68
2021/11/09 00:14:28;;;;;;;999.75;932.55;;;;;;;9.68;75.10;102007.81;688332;28;23465;-68
2021/11/09 00:14:49;;;;;;;1014.53;946.70;;;;;;;9.69;74.96;102000.59;685874;28;92060;-69
2021/11/09 00:15:14;;;;;;;1015.47;947.50;;;;;;;9.70;75.02;102005.00;688350;28;22170;-68
2021/11/09 00:15:36;;;;;;;996.88;929.78;;;;;;;9.69;75.27;102003.31;685802;28;113528;-68
2021/11/09 00:15:58;;;;;;;1029.93;961.00;;;;;;;9.69;75.30;102004.16;689696;28;4162;-68
2021/11/09 00:16:19;;;;;;;1040.60;970.95;;;;;;;9.69;75.32;102003.31;687917;28;43692;-69
2021/11/09 00:16:40;;;;;;;1045.57;975.78;;;;;;;9.69;75.15;101997.91;688534;28;22363;-68
2021/11/09 00:17:03;;;;;;;1051.60;981.57;;;;;;;9.69;75.04;102000.59;688837;28;22258;-68
2021/11/09 00:17:24;;;;;;;1048.75;978.83;;;;;;;9.69;74.95;101998.75;687353;28;69443;-69
2021/11/09 00:17:48;;;;;;;1048.50;978.40;;;;;;;9.70;75.34;102005.00;688392;28;21493;-69
2021/11/09 00:18:10;;;;;;;1052.90;982.75;;;;;;;9.69;75.30;102003.31;686195;28;113756;-68
2021/11/09 00:18:32;;;;;;;1040.93;971.47;;;;;;;9.69;74.95;102006.84;687911;28;45252;-67
2021/11/09 00:18:53;;;;;;;1000.08;932.92;;;;;;;9.70;75.22;101997.75;685705;28;69419;-68
2021/11/09 00:19:14;;;;;;;990.33;923.78;;;;;;;9.71;75.28;102001.31;688688;28;21517;-69
2021/11/09 00:19:35;;;;;;;993.10;926.47;;;;;;;9.70;75.25;101999.59;688091;28;22337;-68
2021/11/09 00:19:58;;;;;;;1011.60;943.90;;;;;;;9.71;75.10;102002.16;689138;28;21535;-68
2021/11/09 00:20:21;;;;;;;1030.68;962.00;;;;;;;9.70;75.06;102000.47;687268;28;45244;-69
2021/11/09 00:20:42;;;;;;;1001.10;933.88;;;;;;;9.72;74.95;101995.78;687129;28;92182;-68
2021/11/09 00:21:04;;;;;;;1000.17;932.97;;;;;;;9.69;74.91;101995.22;688075;28;21528;-68
2021/11/09 00:21:26;;;;;;;1000.45;933.22;;;;;;;9.71;74.95;102006.69;688482;28;23491;-68
2021/11/09 00:21:47;;;;;;;1010.92;943.20;;;;;;;9.71;75.04;102001.31;687050;28;69831;-68
2021/11/09 00:22:08;;;;;;;1009.33;941.72;;;;;;;9.70;74.97;101999.59;688649;28;22270;-68
2021/11/09 00:22:29;;;;;;;997.25;930.25;;;;;;;9.70;75.05;102005.00;688654;28;23507;-68
2021/11/09 00:22:50;;;;;;;995.45;928.42;;;;;;;9.69;75.29;101997.91;688742;28;21779;-69
2021/11/09 00:23:13;;;;;;;1015.55;947.50;;;;;;;9.69;75.31;101997.91;688445;28;23395;-68
2021/11/09 00:23:35;;;;;;;1046.68;977.15;;;;;;;9.70;75.17;102005.00;688154;28;46374;-68
2021/11/09 00:23:59;;;;;;;1050.53;980.75;;;;;;;9.71;75.04;102006.69;689652;28;954;-68
2021/11/09 00:24:21;;;;;;;1048.55;978.85;;;;;;;9.70;75.41;102003.16;684919;28;113294;-69
2021/11/09 00:24:42;;;;;;;1047.55;977.85;;;;;;;9.71;75.35;102004.00;689033;28;22388;-68
2021/11/09 00:25:04;;;;;;;1047.13;977.47;;;;;;;9.69;75.30;102001.44;688309;28;21507;-69
2021/11/09 00:25:26;;;;;;;1048.72;979.03;;;;;;;9.69;75.23;102004.16;686885;28;69481;-67
2021/11/09 00:25:47;;;;;;;1042.50;973.03;;;;;;;9.70;75.03;102005.84;688974;28;23444;-69
2021/11/09 00:26:08;;;;;;;1025.45;956.92;;;;;;;9.70;75.28;102008.56;687677;28;21515;-68
2021/11/09 00:26:30;;;;;;;1023.97;955.70;;;;;;;9.70;75.06;102007.69;688440;28;46324;-69
2021/11/09 00:26:52;;;;;;;998.35;931.33;;;;;;;9.69;75.24;102012.25;688029;28;46418;-69
2021/11/09 00:27:13;;;;;;;997.15;930.20;;;;;;;9.69;75.36;102009.53;688601;28;23407;-68
2021/11/09 00:27:34;;;;;;;1000.25;933.20;;;;;;;9.70;75.27;102013.06;688542;28;23491;-68
2021/11/09 00:27:56;;;;;;;1007.67;939.97;;;;;;;9.68;75.48;102005.13;687842;28;46117;-68
2021/11/09 00:28:17;;;;;;;996.08;929.15;;;;;;;9.70;75.33;102008.56;687197;28;45243;-68
2021/11/09 00:28:39;;;;;;;1024.65;956.15;;;;;;;9.69;75.46;102006.84;685639;28;23210;-69
2021/11/09 00:29:00;;;;;;;1048.68;978.97;;;;;;;9.69;75.16;102006.00;686113;28;23484;-68
2021/11/09 00:29:22;;;;;;;1046.80;977.13;;;;;;;9.69;75.39;102009.53;684983;28;21315;-69
2021/11/09 00:29:44;;;;;;;1046.40;976.78;;;;;;;9.70;75.45;102010.38;685059;28;46257;-68
2021/11/09 00:30:07;;;;;;;1036.25;967.13;;;;;;;9.69;75.48;102006.84;683950;28;67431;-69
2021/11/09 00:30:30;;;;;;;1005.55;938.22;;;;;;;9.69;75.13;102001.44;687168;28;69383;-69
2021/11/09 00:30:52;;;;;;;1006.20;938.80;;;;;;;9.70;75.38;102002.28;687638;28;46310;-68
2021/11/09 00:31:13;;;;;;;999.40;932.35;;;;;;;9.69;75.14;102006.84;686730;28;66302;-68
2021/11/09 00:31:34;;;;;;;994.53;927.63;;;;;;;9.70;75.20;102008.56;688334;28;45238;-68
2021/11/09 00:31:55;;;;;;;992.28;925.50;;;;;;;9.71;75.17;102009.41;688502;28;22373;-69
2021/11/09 00:32:18;;;;;;;994.45;927.55;;;;;;;9.70;75.42;102007.69;689315;28;21619;-68
2021/11/09 00:32:43;;;;;;;986.55;920.08;;;;;;;9.72;75.24;102008.41;686648;28;45202;-69
2021/11/09 00:33:04;;;;;;;989.45;922.65;;;;;;;9.72;75.47;102011.13;685191;28;115061;-69
2021/11/09 00:33:27;;;;;;;1002.80;935.55;;;;;;;9.72;75.11;102008.41;687547;28;44072;-69
2021/11/09 00:33:48;;;;;;;949.63;884.17;;;;;;;9.72;75.22;102009.25;687579;28;44865;-71
2021/11/09 00:34:09;;;;;;;902.95;839.22;;;;;;;9.70;75.14;102002.28;688059;28;23482;-69
2021/11/09 00:34:40;;;;;;;920.03;855.63;;;;;;;9.71;75.23;102004.84;687119;28;59667;-69
2021/11/09 00:35:01;;;;;;;918.60;854.28;;;;;;;9.72;75.11;102011.13;686533;28;69435;-69
2021/11/09 00:35:24;;;;;;;919.35;855.15;;;;;;;9.71;75.07;102009.41;688296;28;21407;-70
2021/11/09 00:35:46;;;;;;;938.28;873.25;;;;;;;9.72;75.12;102011.13;686892;28;69457;-68
2021/11/09 00:36:08;;;;;;;962.95;896.67;;;;;;;9.72;75.22;102011.13;686805;28;44047;-69
2021/11/09 00:36:29;;;;;;;965.70;899.10;;;;;;;9.72;75.04;102011.13;688702;28;21508;-69
2021/11/09 00:36:50;;;;;;;968.40;901.75;;;;;;;9.70;75.12;102011.25;685556;28;22062;-70
2021/11/09 00:37:11;;;;;;;961.03;894.72;;;;;;;9.70;75.37;102008.56;686663;28;21658;-69
2021/11/09 00:37:33;;;;;;;942.17;876.80;;;;;;;9.69;75.14;102014.94;687279;28;45315;-68
2021/11/09 00:37:56;;;;;;;939.50;874.17;;;;;;;9.70;75.25;102007.69;686924;28;45254;-69
2021/11/09 00:38:18;;;;;;;916.47;852.35;;;;;;;9.70;75.20;102016.66;686366;28;67389;-68
2021/11/09 00:38:40;;;;;;;928.67;863.90;;;;;;;9.69;75.20;102012.25;688076;28;22213;-69
2021/11/09 00:39:01;;;;;;;918.22;853.97;;;;;;;9.70;75.28;102015.78;686860;28;69402;-69
2021/11/09 00:39:22;;;;;;;914.55;850.53;;;;;;;9.70;75.20;102013.94;688712;28;22374;-69
2021/11/09 00:39:44;;;;;;;925.85;861.35;;;;;;;9.70;75.29;102013.06;688908;28;1335;-69
2021/11/09 00:40:08;;;;;;;945.65;880.17;;;;;;;9.70;75.50;102011.25;686817;28;46227;-70
2021/11/09 00:40:32;;;;;;;969.10;902.65;;;;;;;9.69;75.52;102014.94;685130;28;92266;-70
2021/11/09 00:40:54;;;;;;;987.65;920.42;;;;;;;9.70;75.53;102018.47;686207;28;69210;-69
2021/11/09 00:41:15;;;;;;;979.33;912.40;;;;;;;9.70;75.58;102013.94;687027;28;44392;-69
2021/11/09 00:41:37;;;;;;;938.03;873.03;;;;;;;9.69;75.38;102016.78;686741;28;22399;-69
2021/11/09 00:41:58;;;;;;;906.60;842.88;;;;;;;9.69;75.26;102012.25;684859;28;43575;-69
2021/11/09 00:42:19;;;;;;;933.22;868.38;;;;;;;9.68;75.53;102015.91;686131;28;21550;-69
2021/11/09 00:42:40;;;;;;;953.13;887.58;;;;;;;9.67;75.39;102014.22;684525;28;46308;-70
2021/11/09 00:43:03;;;;;;;935.60;870.78;;;;;;;9.68;75.31;102010.53;685016;28;22339;-69
2021/11/09 00:43:26;;;;;;;973.78;907.28;;;;;;;9.68;75.37;102015.91;684912;28;69414;-70
2021/11/09 00:43:47;;;;;;;965.85;900.03;;;;;;;9.68;75.60;102018.63;687578;28;46346;-69
2021/11/09 00:44:08;;;;;;;1000.67;933.38;;;;;;;9.68;75.51;102018.63;688086;28;44389;-70
2021/11/09 00:44:30;;;;;;;955.83;890.28;;;;;;;9.69;75.62;102019.50;688505;28;21514;-69
2021/11/09 00:44:53;;;;;;;930.30;865.58;;;;;;;9.70;75.52;102013.06;688127;28;21485;-69
2021/11/09 00:45:15;;;;;;;930.35;865.65;;;;;;;9.67;75.50;102019.63;685798;28;92023;-69
2021/11/09 00:45:36;;;;;;;937.50;872.45;;;;;;;9.67;75.51;102016.94;688417;28;22381;-69
2021/11/09 00:45:58;;;;;;;928.97;864.40;;;;;;;9.69;75.62;102025.72;687546;28;46326;-69
2021/11/09 00:46:19;;;;;;;929.63;865.03;;;;;;;9.69;75.40;102023.03;687740;28;46310;-68
2021/11/09 00:46:40;;;;;;;944.97;879.47;;;;;;;9.68;75.40;102021.31;688081;28;22180;-69
2021/11/09 00:47:01;;;;;;;930.55;865.85;;;;;;;9.69;75.59;102031.13;688287;28;22386;-69
2021/11/09 00:47:24;;;;;;;925.25;860.83;;;;;;;9.70;75.61;102021.19;688271;28;22422;-69
2021/11/09 00:47:45;;;;;;;933.63;868.53;;;;;;;9.70;75.31;102021.19;686141;28;69375;-69
2021/11/09 00:48:07;;;;;;;989.97;922.50;;;;;;;9.71;75.27;102022.88;685301;28;21492;-70
2021/11/09 00:48:28;;;;;;;1003.95;936.05;;;;;;;9.72;75.59;102030.00;685371;28;45237;-68
2021/11/09 00:48:50;;;;;;;990.28;922.88;;;;;;;9.71;75.16;102026.44;688265;28;22444;-69
2021/11/09 00:49:11;;;;;;;998.90;931.22;;;;;;;9.73;75.30;102023.59;687603;28;44387;-69
2021/11/09 00:49:32;;;;;;;985.50;918.47;;;;;;;9.72;75.28;102028.16;688637;28;22549;-69
2021/11/09 00:49:53;;;;;;;951.10;885.55;;;;;;;9.74;75.49;102026.16;688500;28;23459;-69
2021/11/09 00:50:18;;;;;;;925.67;861.30;;;;;;;9.73;75.42;102021.75;688138;28;21526;-69
2021/11/09 00:50:43;;;;;;;925.63;861.20;;;;;;;9.73;75.48;102026.28;684028;28;115161;-69
2021/11/09 00:51:04;;;;;;;940.72;875.85;;;;;;;9.73;75.34;102024.47;684838;28;114960;-68
2021/11/09 00:51:26;;;;;;;975.22;908.85;;;;;;;9.72;75.31;102028.16;688789;28;22391;-69
2021/11/09 00:51:48;;;;;;;984.22;917.78;;;;;;;9.73;75.47;102027.16;687267;28;44322;-69
2021/11/09 00:52:11;;;;;;;956.55;891.05;;;;;;;9.71;75.38;102022.88;687698;28;44484;-69
2021/11/09 00:52:33;;;;;;;952.70;887.35;;;;;;;9.72;75.30;102025.44;687058;28;69422;-68
2021/11/09 00:52:55;;;;;;;988.25;921.55;;;;;;;9.72;75.60;102030.00;687429;28;45251;-69
2021/11/09 00:53:18;;;;;;;1036.25;967.30;;;;;;;9.72;75.39;102019.22;687814;28;46367;-68
2021/11/09 00:53:39;;;;;;;1049.35;979.75;;;;;;;9.73;75.40;102034.38;685196;28;67489;-68
2021/11/09 00:54:00;;;;;;;1042.15;972.88;;;;;;;9.73;75.48;102031.69;687088;28;22366;-69
2021/11/09 00:54:22;;;;;;;1023.30;955.10;;;;;;;9.72;75.56;102027.31;688257;28;21289;-69
2021/11/09 00:54:43;;;;;;;997.40;930.38;;;;;;;9.73;75.57;102020.88;687666;28;46292;-70
2021/11/09 00:55:07;;;;;;;996.42;929.53;;;;;;;9.73;75.62;102026.28;687192;28;22395;-70
2021/11/09 00:55:28;;;;;;;996.70;929.75;;;;;;;9.71;75.59;102031.81;686430;28;69499;-69
2021/11/09 00:55:49;;;;;;;1021.85;953.45;;;;;;;9.72;75.46;102024.59;687502;28;45233;-69
2021/11/09 00:56:12;;;;;;;1013.55;945.67;;;;;;;9.72;75.56;102027.31;688857;28;4252;-69
2021/11/09 00:56:33;;;;;;;994.65;927.85;;;;;;;9.72;75.61;102033.53;686736;28;69479;-68
2021/11/09 00:56:54;;;;;;;993.45;926.60;;;;;;;9.73;75.57;102034.38;687773;28;23500;-69
2021/11/09 00:57:15;;;;;;;1024.25;955.88;;;;;;;9.72;75.54;102030.84;688407;28;23337;-70
2021/11/09 00:57:36;;;;;;;1045.95;976.33;;;;;;;9.72;75.65;102030.84;687876;28;22479;-70
2021/11/09 00:57:58;;;;;;;1051.05;981.05;;;;;;;9.72;75.40;102030.84;688229;28;22508;-69
2021/11/09 00:58:19;;;;;;;1046.25;976.65;;;;;;;9.72;75.57;102038.94;687918;28;44522;-69
2021/11/09 00:58:40;;;;;;;1046.97;977.38;;;;;;;9.72;75.53;102028.16;688253;28;23610;-70
2021/11/09 00:59:02;;;;;;;1043.88;974.47;;;;;;;9.72;75.55;102030.84;688547;28;22446;-68
2021/11/09 00:59:24;;;;;;;1035.45;966.40;;;;;;;9.73;75.75;102034.38;689183;28;952;-69
2021/11/09 00:59:45;;;;;;;1014.20;946.28;;;;;;;9.72;75.55;102030.00;687684;28;46320;-69
2021/11/09 01:00:10;;;;;;;1021.10;952.88;;;;;;;9.72;75.47;102036.25;688010;28;22405;-69
2021/11/09 01:00:33;;;;;;;1018.47;950.38;;;;;;;9.72;75.45;102032.69;685420;28;115036;-69
2021/11/09 01:00:55;;;;;;;1003.28;936.03;;;;;;;9.70;75.51;102030.13;686354;28;69409;-69
2021/11/09 01:01:16;;;;;;;988.95;922.38;;;;;;;9.71;75.70;102030.97;687889;28;46075;-69
2021/11/09 01:01:37;;;;;;;992.53;925.72;;;;;;;9.71;75.74;102030.97;688619;28;22389;-69
2021/11/09 01:01:58;;;;;;;1005.97;938.38;;;;;;;9.71;75.69;102033.69;688686;28;21114;-69
2021/11/09 01:02:20;;;;;;;1015.63;947.63;;;;;;;9.71;75.44;102030.97;688355;28;22505;-69
2021/11/09 01:02:42;;;;;;;1012.88;945.05;;;;;;;9.70;75.50;102032.84;687782;28;44385;-69
2021/11/09 01:03:05;;;;;;;988.67;921.95;;;;;;;9.71;75.46;102033.69;687819;28;45224;-69
2021/11/09 01:03:26;;;;;;;989.08;922.30;;;;;;;9.69;75.63;102035.69;686718;28;69322;-69
2021/11/09 01:03:48;;;;;;;1021.42;952.88;;;;;;;9.71;75.82;102033.69;688447;28;23281;-69
2021/11/09 01:04:09;;;;;;;1054.22;984.13;;;;;;;9.71;75.54;102028.28;687299;28;46405;-69
2021/11/09 01:04:31;;;;;;;1052.78;982.75;;;;;;;9.71;75.82;102029.13;687660;28;45235;-68
2021/11/09 01:04:52;;;;;;;1027.20;958.65;;;;;;;9.71;75.74;102034.53;688644;28;22402;-69
2021/11/09 01:05:20;;;;;;;994.85;927.90;;;;;;;9.71;75.74;102039.06;688168;28;22396;-70
2021/11/09 01:05:42;;;;;;;970.17;904.08;;;;;;;9.69;75.71;102031.13;684678;28;138662;-70
2021/11/09 01:06:03;;;;;;;929.20;864.15;;;;;;;9.70;75.60;102032.84;686277;28;46047;-69
2021/11/09 01:06:25;;;;;;;941.20;875.92;;;;;;;9.70;75.74;102038.22;687765;28;22388;-69
2021/11/09 01:06:47;;;;;;;925.72;861.17;;;;;;;9.69;75.72;102031.13;687558;28;46312;-69
2021/11/09 01:07:08;;;;;;;934.83;870.03;;;;;;;9.71;75.68;102036.38;687258;28;46459;-68
2021/11/09 01:07:29;;;;;;;937.65;872.70;;;;;;;9.70;75.71;102038.22;687983;28;20997;-68
2021/11/09 01:07:54;;;;;;;987.05;919.75;;;;;;;9.71;75.94;102036.38;687760;28;22417;-68
2021/11/09 01:08:18;;;;;;;1018.75;950.17;;;;;;;9.71;75.81;102039.06;685138;28;115010;-71
2021/11/09 01:08:39;;;;;;;997.08;929.60;;;;;;;9.72;75.82;102032.69;686126;28;91920;-68
2021/11/09 01:09:00;;;;;;;973.67;907.13;;;;;;;9.72;75.60;102030.84;688336;28;23465;-70
2021/11/09 01:09:23;;;;;;;971.80;905.50;;;;;;;9.72;75.61;102033.53;687714;28;22475;-69
2021/11/09 01:09:44;;;;;;;976.53;910.30;;;;;;;9.73;75.62;102032.56;686919;28;69412;-69
2021/11/09 01:10:06;;;;;;;994.95;928.17;;;;;;;9.72;75.58;102030.00;688117;28;22399;-69
2021/11/09 01:10:31;;;;;;;993.75;926.95;;;;;;;9.72;75.57;102036.25;687773;28;44603;-69
2021/11/09 01:10:55;;;;;;;1009.13;941.55;;;;;;;9.72;75.65;102032.69;683496;28;115023;-68
2021/11/09 01:11:16;;;;;;;989.67;922.80;;;;;;;9.72;75.65;102035.41;686399;28;90707;-69
2021/11/09 01:11:37;;;;;;;932.20;867.60;;;;;;;9.71;75.56;102030.97;687332;28;45246;-70
2021/11/09 01:11:59;;;;;;;941.40;876.45;;;;;;;9.72;75.69;102028.16;689477;28;22400;-69
2021/11/09 01:12:21;;;;;;;951.63;886.28;;;;;;;9.72;75.64;102030.84;685732;28;21937;-69
2021/11/09 01:12:42;;;;;;;963.17;897.47;;;;;;;9.74;75.76;102033.41;685101;28;46264;-69
2021/11/09 01:13:04;;;;;;;933.88;869.13;;;;;;;9.74;75.67;102031.53;685387;28;21534;-68
2021/11/09 01:13:27;;;;;;;914.42;850.33;;;;;;;9.76;75.57;102027.88;685325;28;46564;-69
2021/11/09 01:13:50;;;;;;;955.03;889.08;;;;;;;9.75;75.78;102035.13;685707;28;92317;-69
2021/11/09 01:14:11;;;;;;;983.67;916.50;;;;;;;9.76;75.62;102033.25;687055;28;69425;-69
2021/11/09 01:14:32;;;;;;;994.13;926.47;;;;;;;9.74;75.79;102036.94;688720;28;21354;-69
2021/11/09 01:14:54;;;;;;;1003.13;935.22;;;;;;;9.74;75.40;102034.25;687271;28;46776;-69
2021/11/09 01:15:17;;;;;;;1002.13;934.25;;;;;;;9.74;75.41;102036.94;688022;28;23504;-69
2021/11/09 01:15:47;;;;;;;994.10;926.47;;;;;;;9.74;75.42;102031.53;686750;28;69512;-68
2021/11/09 01:16:09;;;;;;;966.38;899.72;;;;;;;9.75;75.63;102037.81;684097;28;138462;-69
2021/11/09 01:16:31;;;;;;;970.50;903.67;;;;;;;9.74;75.57;102034.25;688497;28;21533;-68
2021/11/09 01:16:53;;;;;;;950.80;884.97;;;;;;;9.75;75.41;102035.13;686733;28;67537;-70
2021/11/09 01:17:14;;;;;;;954.75;888.80;;;;;;;9.74;75.76;102036.94;686997;28;69374;-69
2021/11/09 01:17:36;;;;;;;938.47;873.40;;;;;;;9.75;75.78;102040.50;688588;28;23478;-70
2021/11/09 01:17:59;;;;;;;924.90;860.30;;;;;;;9.74;75.78;102028.84;688268;28;23488;-69
2021/11/09 01:18:22;;;;;;;909.53;845.65;;;;;;;9.74;75.63;102034.25;687172;28;69357;-69
2021/11/09 01:18:45;;;;;;;929.13;864.42;;;;;;;9.76;75.57;102038.66;686837;28;69307;-69
2021/11/09 01:19:07;;;;;;;950.72;885.13;;;;;;;9.75;75.64;102037.81;686831;28;67488;-69
2021/11/09 01:19:31;;;;;;;928.17;863.60;;;;;;;9.74;75.71;102030.69;687631;28;46393;-69
2021/11/09 01:19:54;;;;;;;930.15;865.50;;;;;;;9.74;75.85;102038.78;685282;28;115068;-68
2021/11/09 01:20:17;;;;;;;945.72;880.33;;;;;;;9.72;75.64;102041.63;684366;28;45886;-69
2021/11/09 01:20:39;;;;;;;919.22;855.03;;;;;;;9.73;75.69;102040.66;683268;28;89649;-69
2021/11/09 01:21:01;;;;;;;921.97;857.47;;;;;;;9.72;75.62;102038.09;681553;28;22405;-69
2021/11/09 01:21:23;;;;;;;931.60;866.78;;;;;;;9.72;75.86;102040.78;681650;28;45223;-69
2021/11/09 01:21:45;;;;;;;925.67;861.17;;;;;;;9.72;75.74;102040.78;681954;28;45408;-68
2021/11/09 01:22:06;;;;;;;916.72;852.53;;;;;;;9.71;75.69;102039.91;683161;28;47055;-69
2021/11/09 01:22:27;;;;;;;948.65;883.00;;;;;;;9.71;75.91;102042.63;687065;28;45248;-69
2021/11/09 01:22:51;;;;;;;985.90;918.40;;;;;;;9.71;75.63;102039.06;688275;28;21516;-69
2021/11/09 01:23:13;;;;;;;984.25;916.80;;;;;;;9.72;75.68;102038.94;686045;28;92089;-69
2021/11/09 01:23:35;;;;;;;990.70;923.03;;;;;;;9.72;75.96;102040.78;687693;28;44078;-69
2021/11/09 01:23:57;;;;;;;1001.08;932.97;;;;;;;9.73;75.96;102039.78;688565;28;21321;-70
2021/11/09 01:24:19;;;;;;;994.05;926.38;;;;;;;9.70;75.88;102040.94;687495;28;43733;-70
2021/11/09 01:24:40;;;;;;;953.60;888.25;;;;;;;9.73;75.88;102042.47;683766;28;69323;-69
2021/11/09 01:25:04;;;;;;;969.28;903.40;;;;;;;9.72;75.60;102044.34;685247;28;21304;-69
2021/11/09 01:25:28;;;;;;;992.17;925.47;;;;;;;9.71;75.91;102045.31;685130;28;13435;-69
2021/11/09 01:25:49;;;;;;;1019.33;951.15;;;;;;;9.71;75.82;102045.31;683640;28;69262;-69
2021/11/09 01:26:11;;;;;;;1022.03;953.75;;;;;;;9.71;75.62;102042.63;685394;28;44372;-69
2021/11/09 01:26:33;;;;;;;998.83;931.88;;;;;;;9.71;75.79;102044.47;687399;28;45093;-69
2021/11/09 01:26:55;;;;;;;1002.83;935.72;;;;;;;9.72;75.80;102049.72;687630;28;46398;-68
2021/11/09 01:27:17;;;;;;;1000.33;933.33;;;;;;;9.71;75.81;102037.22;687797;28;46235;-69
2021/11/09 01:27:39;;;;;;;1031.57;962.88;;;;;;;9.72;75.67;102041.63;687227;28;46458;-68
2021/11/09 01:28:01;;;;;;;1005.75;938.33;;;;;;;9.73;76.14;102042.47;688360;28;23446;-71
2021/11/09 01:28:22;;;;;;;999.78;932.75;;;;;;;9.72;75.84;102043.50;687676;28;18278;-68
2021/11/09 01:28:45;;;;;;;991.25;924.63;;;;;;;9.72;75.70;102044.34;688592;28;23714;-71
2021/11/09 01:29:08;;;;;;;992.38;925.63;;;;;;;9.71;75.95;102039.06;686892;28;67578;-69
2021/11/09 01:29:31;;;;;;;1045.13;975.45;;;;;;;9.69;75.66;102044.59;688954;28;13291;-68
2021/11/09 01:29:52;;;;;;;1053.38;983.28;;;;;;;9.70;75.60;102040.94;687036;28;46227;-69
2021/11/09 01:30:17;;;;;;;1047.60;977.92;;;;;;;9.71;75.93;102039.06;687629;28;21060;-70
2021/11/09 01:30:39;;;;;;;1013.20;945.33;;;;;;;9.71;75.80;102047.16;683797;28;115061;-69
2021/11/09 01:31:01;;;;;;;1024.70;956.15;;;;;;;9.70;75.68;102043.63;684187;28;44201;-69
2021/11/09 01:31:23;;;;;;;1015.63;947.58;;;;;;;9.71;75.83;102045.31;684549;28;44389;-69
2021/11/09 01:31:44;;;;;;;993.00;926.25;;;;;;;9.71;75.94;102044.47;686551;28;23463;-70
2021/11/09 01:32:06;;;;;;;998.55;931.58;;;;;;;9.69;75.77;102041.91;687668;28;46462;-69
2021/11/09 01:32:27;;;;;;;1000.47;933.47;;;;;;;9.69;75.74;102038.38;686877;28;46285;-69
2021/11/09 01:32:51;;;;;;;992.50;925.80;;;;;;;9.70;75.80;102043.63;687043;28;22202;-69
2021/11/09 01:33:12;;;;;;;993.47;926.78;;;;;;;9.70;75.68;102046.31;685710;28;91821;-69
2021/11/09 01:33:34;;;;;;;1005.28;938.00;;;;;;;9.70;75.83;102042.75;688339;28;23448;-70
2021/11/09 01:33:55;;;;;;;1018.83;950.55;;;;;;;9.70;75.67;102045.44;687539;28;45395;-69
2021/11/09 01:34:17;;;;;;;1007.60;940.13;;;;;;;9.70;75.94;102048.16;688557;28;22413;-69
2021/11/09 01:34:38;;;;;;;994.85;928.05;;;;;;;9.69;75.83;102046.47;687431;28;44351;-69
2021/11/09 01:35:00;;;;;;;984.58;918.17;;;;;;;9.69;75.97;102041.91;688167;28;22367;-70
2021/11/09 01:35:21;;;;;;;1000.20;933.10;;;;;;;9.69;75.91;102046.47;687807;28;45353;-68
2021/11/09 01:35:44;;;;;;;1018.38;950.17;;;;;;;9.69;75.60;102038.38;688228;28;22384;-68
2021/11/09 01:36:06;;;;;;;995.95;928.95;;;;;;;9.68;75.65;102036.66;686284;28;67410;-69
2021/11/09 01:36:27;;;;;;;1001.95;934.70;;;;;;;9.70;75.90;102040.06;689352;28;1697;-69
2021/11/09 01:36:48;;;;;;;1026.93;958.35;;;;;;;9.70;75.95;102042.75;688459;28;23464;-69
2021/11/09 01:37:12;;;;;;;1038.28;968.97;;;;;;;9.69;75.66;102041.06;688429;28;22560;-68
2021/11/09 01:37:33;;;;;;;1051.38;981.25;;;;;;;9.68;75.88;102037.50;685940;28;92376;-69
2021/11/09 01:37:54;;;;;;;1057.05;986.58;;;;;;;9.69;75.60;102035.69;687599;28;22411;-69
2021/11/09 01:38:15;;;;;;;1056.75;986.47;;;;;;;9.69;75.75;102035.69;688296;28;20874;-71
2021/11/09 01:38:37;;;;;;;1007.85;939.50;;;;;;;9.69;76.09;102036.53;688152;28;22425;-69
2021/11/09 01:38:58;;;;;;;979.95;912.78;;;;;;;9.68;75.87;102034.81;687426;28;46278;-70
2021/11/09 01:39:20;;;;;;;939.17;874.05;;;;;;;9.68;76.02;102040.19;688572;28;22425;-69
2021/11/09 01:39:41;;;;;;;938.22;873.17;;;;;;;9.69;75.92;102036.53;688239;28;46144;-69
2021/11/09 01:40:03;;;;;;;961.28;895.10;;;;;;;9.69;75.96;102033.81;688731;28;4144;-70
2021/11/09 01:40:27;;;;;;;956.60;890.60;;;;;;;9.69;75.69;102031.13;687935;28;44408;-69
2021/11/09 01:40:48;;;;;;;926.05;861.42;;;;;;;9.69;75.66;102038.38;685869;28;92224;-69